Report METAR

 

LIML - Milano/Linate, Italy
Distance from station: NO 27km
Dati ricevuti: 18/11/2018 23:20
Sereno
Sereno
 Vento da ENE
Vento: ENE 6 km/h
Temperatura: 4°C
P.to Rugiada: 1°C
Umidità: 81%
Barometro: 1014 hPa
Summary: Sereno
Visibility: superiore a 10 km
2018/11/18 22:20 LIML 182220Z 06003KT CAVOK 04/01 Q1014 NOSIG
LIME - Bergamo/Orio Ser, Italy
Distance from station: NNE 43km
Dati ricevuti: 18/11/2018 23:20
Parz. nuvoloso
Parz. nuvoloso
 Vento da N
Vento: N 9 km/h
Temperatura: 1°C
Temperatura Vento: -2°C
P.to Rugiada: -1°C
Umidità: 87%
Barometro: 1014 hPa
Nuvole: Parz. nuvoloso
Visibility: 8 km
2018/11/18 22:20 LIME 182220Z 01005KT 8000 NSC 01/M01 Q1014 NOSIG
 
LIMS - Piacenza, it-Afb, Italy
Distance from station: SSE 45km
Dati ricevuti: 18/11/2018 18:55
DATI Obsoleti
Sereno
Sereno
 Vento da OSO
Vento: OSO 6 km/h
Temperatura: 5°C
P.to Rugiada: 3°C
Umidità: 87%
Barometro: 1015 hPa
Summary: Sereno
Visibility: superiore a 10 km
2018/11/18 17:55 LIMS 181755Z 24003KT CAVOK 05/03 Q1015
LIPO - Brescia/Montichi, Italy
Distance from station: ENE 65km
Dati ricevuti: 18/11/2018 22:50
Sereno
Sereno
 Vento da NNE
Vento: NNE 11 km/h
Temperatura: 2°C
Temperatura Vento: -1°C
P.to Rugiada: 0°C
Umidità: 87%
Barometro: 1015 hPa
Summary: Sereno
Visibility: superiore a 10 km
2018/11/18 21:50 LIPO 182150Z 03006KT CAVOK 02/00 Q1015